Flight Track Log - Related Links

Times and Time Zones

All times are in EDT time to prevent confusion due to time zone crossing. See the USC108 flight status page for this flight to view local times or setup timezone preferences in your user account.

Time Position Orientation Groundspeed Altitude Reporting Facility
EDT Latitude Longitude Course Direction KTS MPH feet Rate Location/Type
Tue 12:38:36 AM 38.4167 -85.7000 52° Northeast 129 148 2,800  Level Louisville TRACON
Tue 12:40:13 AM 38.4403 -85.6617 52° Northeast 114 131 4,500 879 Climbing Indianapolis Center
Tue 12:41:13 AM 38.4658 -85.6297 44° Northeast 122 140 5,100 950 Climbing Indianapolis Center
Tue 12:42:13 AM 38.4994 -85.5917 42° Northeast 132 152 6,400 992 Climbing Indianapolis Center
Tue 12:43:14 AM 38.5189 -85.5589 53° Northeast 119 137 7,100 347 Climbing Indianapolis Center
Tue 12:44:14 AM 38.5431 -85.5189 52° Northeast 137 158 7,100  Level Indianapolis Center
Tue 12:45:15 AM 38.5733 -85.4733 50° Northeast 163 188 7,100  Level Indianapolis Center
Tue 12:46:15 AM 38.5994 -85.4261 55° Northeast 162 186 7,100  Level Indianapolis Center
Tue 12:47:15 AM 38.6292 -85.3772 52° Northeast 170 196 7,100  Level Indianapolis Center
Tue 12:48:16 AM 38.6594 -85.3322 49° Northeast 170 196 7,100 -50 Level Indianapolis Center
Tue 12:49:16 AM 38.6864 -85.2892 51° Northeast 163 188 7,000 -50 Descending Indianapolis Center
Tue 12:50:17 AM 38.7144 -85.2442 51° Northeast 162 186 7,000  Level Indianapolis Center
Tue 12:51:17 AM 38.7428 -85.2000 51° Northeast 162 186 7,000 50 Level Indianapolis Center
Tue 12:52:17 AM 38.7711 -85.1553 51° Northeast 161 185 7,100 50 Climbing Indianapolis Center
Tue 12:53:18 AM 38.7983 -85.1111 52° Northeast 159 183 7,100  Level Indianapolis Center
Tue 12:54:18 AM 38.8256 -85.0658 52° Northeast 160 184 7,100  Level Indianapolis Center
Tue 12:55:18 AM 38.8542 -85.0194 52° Northeast 166 191 7,100  Level Indianapolis Center
Tue 12:56:19 AM 38.8817 -84.9742 52° Northeast 163 188 7,100  Level Indianapolis Center
Tue 12:57:19 AM 38.9117 -84.9283 50° Northeast 167 192 7,100  Level Indianapolis Center
Tue 12:58:19 AM 38.9400 -84.8828 51° Northeast 165 190 7,100  Level Indianapolis Center
Tue 12:58:40 AM 38.9500 -84.8667 51° Northeast 169 194 7,100 -80 Level Cincinnati TRACON
Tue 12:59:34 AM 38.9833 -84.8167 49° Northeast 167 192 7,000  Descending Cincinnati TRACON
Tue 01:00:40 AM 39.0167 -84.7667 49° Northeast 165 190 7,100 48 Climbing Cincinnati TRACON
Tue 01:01:40 AM 39.0500 -84.7167 49° Northeast 168 193 7,100  Level Cincinnati TRACON
Tue 01:02:40 AM 39.0833 -84.6833 38° Northeast 168 193 7,100  Level Cincinnati TRACON
Tue 01:03:34 AM 39.1000 -84.6333 67° East 168 193 7,100  Level Cincinnati TRACON
Tue 01:04:40 AM 39.1333 -84.5833 49° Northeast 163 188 7,100  Level Cincinnati TRACON
Tue 01:05:21 AM 39.1536 -84.5694 28° Northeast 163 188 7,100  Level Indianapolis Center
Tue 01:06:22 AM 39.1842 -84.5250 48° Northeast 163 188 7,100 -218 Level Indianapolis Center
Tue 01:07:11 AM 39.2106 -84.4822 51° Northeast 166 191 6,700 -587 Descending Indianapolis Center
Tue 01:07:54 AM 39.2286 -84.4417 60° Northeast 182 209 6,200 -761 Descending Indianapolis Center
Tue 01:08:22 AM 39.2367 -84.4169 67° East 181 208 5,800 -600 Descending Indianapolis Center
Tue 01:08:54 AM 39.2500 -84.3853 61° Northeast 178 205 5,600 -689 Descending Indianapolis Center
Tue 01:09:23 AM 39.2672 -84.3667 40° Northeast 181 208 5,100 -492 Descending Indianapolis Center
Tue 01:09:55 AM 39.2950 -84.3481 27° Northeast 190 219 5,100 -100 Level Indianapolis Center
Tue 01:10:23 AM 39.3108 -84.3344 34° Northeast 182 209 5,000  Descending Indianapolis Center
Tue 01:10:55 AM 39.3314 -84.3125 40° Northeast 168 193 5,100  Climbing Indianapolis Center
Tue 01:11:23 AM 39.3483 -84.2958 37° Northeast 174 200 5,000  Descending Indianapolis Center
Tue 01:11:56 AM 39.3681 -84.2742 40° Northeast 166 191 5,100 98 Climbing Indianapolis Center
Tue 01:12:24 AM 39.3817 -84.2544 48° Northeast 169 194 5,100  Level Indianapolis Center
Tue 01:12:56 AM 39.3989 -84.2294 48° Northeast 168 193 5,100  Level Indianapolis Center
Tue 01:13:24 AM 39.4133 -84.2108 45° Northeast 166 191 5,100 98 Level Indianapolis Center
Tue 01:13:57 AM 39.4278 -84.1794 59° Northeast 165 190 5,200 -100 Climbing Indianapolis Center
Tue 01:14:24 AM 39.4406 -84.1619 47° Northeast 166 191 5,000  Descending Indianapolis Center
Tue 01:14:58 AM 39.4547 -84.1314 59° Northeast 165 190 5,200 200 Climbing Indianapolis Center
Tue 01:15:24 AM 39.4639 -84.1106 60° Northeast 165 190 5,200 -100 Level Indianapolis Center
Tue 01:15:58 AM 39.4775 -84.0803 60° Northeast 165 190 5,100  Descending Indianapolis Center
Tue 01:16:25 AM 39.4878 -84.0594 57° Northeast 164 189 5,200  Climbing Indianapolis Center
Tue 01:16:59 AM 39.5025 -84.0294 58° Northeast 165 190 5,100  Descending Indianapolis Center
Tue 01:17:25 AM 39.5119 -84.0083 60° Northeast 165 190 5,200  Climbing Indianapolis Center
Tue 01:17:59 AM 39.5253 -83.9783 60° Northeast 164 189 5,100  Descending Indianapolis Center
Tue 01:18:25 AM 39.5367 -83.9581 54° Northeast 165 190 5,200  Climbing Indianapolis Center
Tue 01:19:00 AM 39.5519 -83.9303 54° Northeast 167 192 5,100  Descending Indianapolis Center
Tue 01:19:26 AM 39.5642 -83.9086 54° Northeast 166 191 5,200  Climbing Indianapolis Center
Tue 01:20:01 AM 39.5814 -83.8772 55° Northeast 168 193 5,100  Descending Indianapolis Center
Tue 01:20:26 AM 39.5914 -83.8600 53° Northeast 166 191 5,200 100 Climbing Indianapolis Center
Tue 01:21:01 AM 39.6081 -83.8292 55° Northeast 168 193 5,200 -100 Level Indianapolis Center
Tue 01:21:26 AM 39.6219 -83.8122 43° Northeast 168 193 5,100  Descending Indianapolis Center
Tue 01:22:02 AM 39.6428 -83.7847 45° Northeast 167 192 5,200 100 Climbing Indianapolis Center
Tue 01:22:26 AM 39.6533 -83.7658 54° Northeast 169 194 5,200 -90 Level Indianapolis Center
Tue 01:23:09 AM 39.6739 -83.7319 52° Northeast 173 199 5,100  Descending Indianapolis Center
Tue 01:23:27 AM 39.6828 -83.7164 53° Northeast 170 196 5,200 100 Climbing Indianapolis Center
Tue 01:24:09 AM 39.7028 -83.6839 51° Northeast 169 194 5,200 -100 Level Indianapolis Center
Tue 01:24:27 AM 39.7125 -83.6678 52° Northeast 170 196 5,100  Descending Indianapolis Center
Tue 01:25:10 AM 39.7336 -83.6336 51° Northeast 171 197 5,200  Climbing Indianapolis Center
Tue 01:25:27 AM 39.7417 -83.6192 54° Northeast 170 196 5,100  Descending Indianapolis Center
Tue 01:26:10 AM 39.7622 -83.5856 51° Northeast 167 192 5,200  Climbing Indianapolis Center
Tue 01:26:27 AM 39.7658 -83.5797 51° Northeast 169 194 5,100  Descending Indianapolis Center
Tue 01:27:11 AM 39.7911 -83.5375 52° Northeast 165 190 5,200 98 Climbing Indianapolis Center
Tue 01:27:28 AM 39.7953 -83.5319 46° Northeast 168 193 5,200 -90 Level Indianapolis Center
Tue 01:28:18 AM 39.8303 -83.4881 44° Northeast 174 200 5,100 -164 Descending Indianapolis Center
Tue 01:29:18 AM 39.8606 -83.4428 49° Northeast 175 201 4,900 -397 Descending Indianapolis Center
Tue 01:30:19 AM 39.8936 -83.3925 49° Northeast 186 214 4,300 -458 Descending Indianapolis Center
Tue 01:31:29 AM 39.9289 -83.3294 54° Northeast 180 207 3,900 -343 Descending Indianapolis Center

Login

Don't have an account? Register now (free) for customized features, flight alerts, and more!